Terminal Aerodrome Forecast
Issued by NWS

Home | Current Version | Previous Version | Text Only | Print | Product List | Glossary On
Versions: 1 2 3 4 5 6 7 8 9 10 11 12 13 14 15 16
621
FTUS43 KEAX 301515 AAA
TAFMKC
TAF AMD
KMKC 301515Z 3015/0112 08018KT 3SM -SHRA OVC008
      TEMPO 3015/3017 2SM BR OVC004
     FM301800 15009KT P6SM VCSH BKN015
     FM302000 17012KT P6SM VCSH BKN025
     FM010300 16009KT P6SM VCSH OVC015
     FM010600 22010KT P6SM OVC008=

USA.gov is the U.S. government's official web portal to all federal, state and local government web resources and services.